Time;durP1;ratioP1;P1;durP2;ratioP2;P2;SDS_P1;SDS_P2;PMS_P1;PMS_P2;Temp;Humidity;BMP_temperature;BMP_pressure;BME280_temperature;BME280_humidity;BME280_pressure;Samples;Min_cycle;Max_cycle;Signal;HPM_P1;HPM_P2
2023/04/21 00:01:15;;;;;;;8.83;4.10;;;;;;;11.09;94.70;101502.78;5096224;28;20476;-67
2023/04/21 00:03:42;;;;;;;9.40;3.67;;;;;;;11.04;94.74;101506.34;5096203;28;20456;-67
2023/04/21 00:06:09;;;;;;;8.33;3.40;;;;;;;11.00;94.65;101502.56;5096272;28;20539;-67
2023/04/21 00:08:39;;;;;;;11.13;3.63;;;;;;;10.94;94.94;101502.91;5095940;28;20955;-67
2023/04/21 00:11:06;;;;;;;14.47;4.63;;;;;;;10.86;95.09;101496.16;5096073;28;20523;-67
2023/04/21 00:13:32;;;;;;;19.43;4.70;;;;;;;10.82;95.39;101503.22;5095559;28;20496;-67
2023/04/21 00:15:59;;;;;;;14.80;3.27;;;;;;;10.77;95.83;101498.66;5095888;28;20445;-67
2023/04/21 00:18:26;;;;;;;9.50;4.10;;;;;;;10.75;96.17;101495.41;5095602;28;20565;-68
2023/04/21 00:20:53;;;;;;;9.10;3.60;;;;;;;10.70;96.33;101498.13;5095867;28;20447;-67
2023/04/21 00:23:19;;;;;;;8.40;3.53;;;;;;;10.67;97.24;101496.00;5095382;28;20806;-68
2023/04/21 00:25:47;;;;;;;11.83;4.30;;;;;;;10.67;96.83;101496.00;5095468;28;20787;-67
2023/04/21 00:28:14;;;;;;;8.70;3.50;;;;;;;10.65;97.03;101495.47;5095777;28;20440;-68
2023/04/21 00:30:41;;;;;;;9.10;4.60;;;;;;;10.64;96.96;101491.13;5095788;28;20462;-67
2023/04/21 00:33:07;;;;;;;8.30;4.07;;;;;;;10.63;96.72;101494.94;5095269;28;20500;-68
2023/04/21 00:35:34;;;;;;;7.80;3.57;;;;;;;10.62;96.65;101487.88;5095699;28;20484;-67
2023/04/21 00:38:00;;;;;;;8.37;4.10;;;;;;;10.56;97.13;101489.81;5095451;28;20436;-67
2023/04/21 00:40:27;;;;;;;10.77;3.90;;;;;;;10.56;97.33;101489.00;5095212;28;20523;-67
2023/04/21 00:42:55;;;;;;;10.10;4.37;;;;;;;10.56;97.08;101492.53;5095008;28;20555;-68
2023/04/21 00:45:22;;;;;;;8.13;3.30;;;;;;;10.55;97.16;101481.97;5094491;28;20971;-68
2023/04/21 00:47:49;;;;;;;8.93;3.30;;;;;;;10.49;97.81;101483.91;5095412;28;20444;-68
2023/04/21 00:50:15;;;;;;;8.50;3.80;;;;;;;10.46;97.58;101484.44;5095039;28;20543;-67
2023/04/21 00:52:45;;;;;;;11.23;4.30;;;;;;;10.45;97.56;101479.31;5095194;28;20541;-67
2023/04/21 00:55:12;;;;;;;10.00;3.87;;;;;;;10.43;97.65;101482.28;5095111;28;20487;-67
2023/04/21 00:57:39;;;;;;;8.03;3.00;;;;;;;10.40;97.77;101477.41;5095163;28;20448;-68
2023/04/21 01:00:09;;;;;;;9.93;3.47;;;;;;;10.41;98.16;101484.47;5095199;28;20558;-68
2023/04/21 01:02:37;;;;;;;9.67;3.70;;;;;;;10.34;98.53;101478.53;5094983;28;20547;-68
2023/04/21 01:05:07;;;;;;;13.83;4.50;;;;;;;10.30;98.96;101475.56;5094988;28;20493;-68
2023/04/21 01:07:34;;;;;;;10.60;3.20;;;;;;;10.26;99.13;101485.34;5095018;28;20449;-68
2023/04/21 01:10:01;;;;;;;9.43;4.00;;;;;;;10.23;98.77;101485.88;5094757;28;20459;-68
2023/04/21 01:12:27;;;;;;;8.70;3.40;;;;;;;10.21;98.90;101479.91;5094961;28;20533;-68
2023/04/21 01:14:54;;;;;;;11.20;4.03;;;;;;;10.11;99.02;101486.16;5094860;28;20490;-68
2023/04/21 01:17:22;;;;;;;11.30;4.80;;;;;;;10.11;98.68;101482.66;5094489;28;20487;-68
2023/04/21 01:19:51;;;;;;;13.33;5.33;;;;;;;10.01;98.46;101472.69;5094869;28;20451;-68
2023/04/21 01:22:19;;;;;;;8.10;3.67;;;;;;;9.93;98.49;101467.81;5094624;28;20801;-68
2023/04/21 01:24:48;;;;;;;8.17;2.97;;;;;;;9.94;98.18;101468.63;5094792;28;20448;-68
2023/04/21 01:27:17;;;;;;;9.07;3.90;;;;;;;9.93;98.14;101467.00;5094352;28;20935;-68
2023/04/21 01:29:46;;;;;;;11.73;3.97;;;;;;;9.86;98.64;101465.38;5094236;28;21010;-67
2023/04/21 01:32:16;;;;;;;8.17;3.87;;;;;;;9.83;99.33;101465.97;5094407;28;20523;-67
2023/04/21 01:34:44;;;;;;;11.40;4.67;;;;;;;9.82;99.36;101471.63;5094169;28;20475;-67
2023/04/21 01:37:11;;;;;;;13.23;5.13;;;;;;;9.79;99.58;101475.69;5094070;28;21044;-68
2023/04/21 01:39:40;;;;;;;10.30;4.40;;;;;;;9.71;100.00;101461.91;5094383;28;20468;-67
2023/04/21 01:42:07;;;;;;;10.33;4.50;;;;;;;9.69;100.00;101459.47;5094085;28;20539;-67
2023/04/21 01:44:34;;;;;;;9.60;4.20;;;;;;;9.67;100.00;101456.25;5094244;28;20425;-67
2023/04/21 01:47:02;;;;;;;9.17;4.70;;;;;;;9.59;100.00;101451.38;5093861;28;20441;-67
2023/04/21 01:49:28;;;;;;;10.80;4.57;;;;;;;9.56;100.00;101458.16;5094164;28;20882;-67
2023/04/21 01:51:55;;;;;;;9.70;5.07;;;;;;;9.59;100.00;101454.09;5094249;28;20493;-67
2023/04/21 01:54:22;;;;;;;10.73;5.17;;;;;;;9.50;100.00;101455.72;5093848;28;20483;-68
2023/04/21 01:56:50;;;;;;;9.97;4.50;;;;;;;9.51;100.00;101449.22;5093807;28;20482;-68
2023/04/21 01:59:16;;;;;;;9.27;4.70;;;;;;;9.51;100.00;101451.94;5094023;28;20440;-68
2023/04/21 02:01:43;;;;;;;11.17;5.07;;;;;;;9.46;100.00;101460.84;5094058;28;21046;-67
2023/04/21 02:04:10;;;;;;;9.90;4.70;;;;;;;9.40;100.00;101450.34;5093851;28;20452;-67
2023/04/21 02:06:36;;;;;;;13.43;4.13;;;;;;;9.40;100.00;101450.34;5093977;28;20441;-67
2023/04/21 02:09:03;;;;;;;9.30;4.70;;;;;;;9.40;100.00;101451.13;5093635;28;20865;-68
2023/04/21 02:11:29;;;;;;;16.90;4.47;;;;;;;9.37;100.00;101445.47;5093503;28;20436;-68
2023/04/21 02:13:57;;;;;;;12.07;4.70;;;;;;;9.33;100.00;101450.59;5093250;28;20844;-67
2023/04/21 02:16:25;;;;;;;14.03;5.53;;;;;;;9.32;100.00;101438.16;5093761;28;20436;-68
2023/04/21 02:18:52;;;;;;;12.63;4.73;;;;;;;9.29;100.00;101447.59;5093756;28;20445;-68
2023/04/21 02:21:19;;;;;;;12.80;5.20;;;;;;;9.25;100.00;101446.56;5094795;28;20501;-65
2023/04/21 02:23:46;;;;;;;10.47;4.40;;;;;;;9.19;100.00;101444.09;5093398;28;20496;-64
2023/04/21 02:26:12;;;;;;;16.70;4.60;;;;;;;9.18;100.00;101434.38;5093699;28;20519;-64
2023/04/21 02:28:39;;;;;;;10.57;4.93;;;;;;;9.14;100.00;101433.31;5093459;28;20447;-64
2023/04/21 02:31:07;;;;;;;11.67;5.53;;;;;;;9.08;100.00;101435.19;5093489;28;20441;-64
2023/04/21 02:33:34;;;;;;;9.40;4.50;;;;;;;9.08;100.00;101430.59;5093432;28;20460;-65
2023/04/21 02:36:00;;;;;;;28.13;6.10;;;;;;;9.04;100.00;101431.41;5093399;28;20480;-64
2023/04/21 02:38:27;;;;;;;14.60;5.70;;;;;;;8.96;100.00;101432.75;5093054;28;20486;-65
2023/04/21 02:40:53;;;;;;;12.90;5.97;;;;;;;8.91;100.00;101440.06;5093388;28;20535;-64
2023/04/21 02:43:20;;;;;;;13.10;5.33;;;;;;;8.84;100.00;101438.41;5092832;28;20562;-65
2023/04/21 02:45:46;;;;;;;17.70;6.07;;;;;;;8.84;100.00;101437.59;5092973;28;20873;-64
2023/04/21 02:48:14;;;;;;;13.30;5.80;;;;;;;8.81;99.98;101433.56;5093320;28;20531;-65
2023/04/21 02:50:43;;;;;;;12.67;5.17;;;;;;;8.79;100.00;101435.69;5092951;28;20974;-64
2023/04/21 02:53:09;;;;;;;12.70;6.00;;;;;;;8.75;100.00;101428.41;5093176;28;20464;-64
2023/04/21 02:55:36;;;;;;;15.40;5.67;;;;;;;8.74;100.00;101430.28;5092833;28;21079;-65
2023/04/21 02:58:02;;;;;;;8.73;4.50;;;;;;;8.76;100.00;101428.13;5092933;28;20486;-64
2023/04/21 03:00:29;;;;;;;13.30;5.70;;;;;;;8.76;100.00;101430.00;5093108;28;20718;-64
2023/04/21 03:02:56;;;;;;;13.37;6.60;;;;;;;8.79;100.00;101426.78;5092803;28;20974;-65
2023/04/21 03:05:24;;;;;;;12.67;6.17;;;;;;;8.75;100.00;101425.69;5093108;28;20436;-64
2023/04/21 03:07:50;;;;;;;12.00;6.70;;;;;;;8.77;100.00;101427.06;5093310;28;20440;-65
2023/04/21 03:10:18;;;;;;;11.87;5.83;;;;;;;8.79;100.00;101433.00;5097323;28;20448;-67
2023/04/21 03:12:45;;;;;;;16.77;5.90;;;;;;;8.80;100.00;101429.22;5096938;28;20468;-68
2023/04/21 03:15:13;;;;;;;12.00;6.50;;;;;;;8.83;100.00;101434.09;5097109;28;20480;-67
2023/04/21 03:17:39;;;;;;;12.57;6.27;;;;;;;8.78;100.00;101427.88;5097110;28;20444;-64
2023/04/21 03:20:07;;;;;;;14.37;5.80;;;;;;;8.82;100.00;101426.25;5097248;28;20895;-64
2023/04/21 03:22:35;;;;;;;14.33;5.20;;;;;;;8.81;100.00;101427.34;5097007;28;20487;-64
2023/04/21 03:25:02;;;;;;;15.30;7.07;;;;;;;8.76;100.00;101422.72;5096784;28;20443;-64
2023/04/21 03:27:29;;;;;;;14.80;6.63;;;;;;;8.58;100.00;101429.44;5096580;28;21006;-64
2023/04/21 03:29:55;;;;;;;15.70;5.93;;;;;;;8.63;100.00;101425.13;5096930;28;20455;-64
2023/04/21 03:32:22;;;;;;;13.93;6.77;;;;;;;8.56;100.00;101428.09;5096742;28;20797;-64
2023/04/21 03:34:50;;;;;;;13.47;6.90;;;;;;;8.55;100.00;101424.59;5096697;28;20490;-64
2023/04/21 03:37:16;;;;;;;14.63;6.40;;;;;;;8.53;100.00;101431.31;5096703;28;20462;-64
2023/04/21 03:39:44;;;;;;;13.20;4.83;;;;;;;8.46;100.00;101426.19;5096393;28;20884;-65
2023/04/21 03:42:11;;;;;;;14.77;6.33;;;;;;;8.41;100.00;101423.47;5096331;28;20531;-65
2023/04/21 03:44:37;;;;;;;14.87;6.47;;;;;;;8.35;100.00;101429.88;5096400;28;20922;-64
2023/04/21 03:47:04;;;;;;;12.40;5.23;;;;;;;8.32;100.00;101419.63;5096572;28;20564;-64
2023/04/21 03:49:31;;;;;;;16.10;7.00;;;;;;;8.37;100.00;101424.25;5096462;28;20476;-63
2023/04/21 03:51:57;;;;;;;18.40;7.13;;;;;;;8.33;100.00;101422.06;5096070;28;20445;-62
2023/04/21 03:54:24;;;;;;;19.73;7.50;;;;;;;8.37;100.00;101419.69;5095973;28;20986;-63
2023/04/21 03:56:52;;;;;;;11.70;6.40;;;;;;;8.40;100.00;101421.03;5096112;28;20500;-64
2023/04/21 03:59:19;;;;;;;13.50;6.70;;;;;;;8.41;100.00;101426.19;5096218;28;20440;-63
2023/04/21 04:01:45;;;;;;;12.87;6.87;;;;;;;8.40;100.00;101423.72;5096011;28;20527;-63
2023/04/21 04:04:12;;;;;;;12.27;7.40;;;;;;;8.42;100.00;101424.28;5095807;28;20494;-63
2023/04/21 04:06:38;;;;;;;14.37;6.20;;;;;;;8.44;100.00;101433.72;5096123;28;20436;-63
2023/04/21 04:09:05;;;;;;;18.40;6.07;;;;;;;8.49;100.00;101430.22;5095821;28;20480;-63
2023/04/21 04:11:32;;;;;;;15.80;6.53;;;;;;;8.53;100.00;101431.31;5096049;28;20527;-63
2023/04/21 04:14:00;;;;;;;18.63;7.40;;;;;;;8.54;100.00;101432.94;5095937;28;20509;-63
2023/04/21 04:16:27;;;;;;;14.07;6.80;;;;;;;8.54;100.00;101427.53;5095891;28;20519;-64
2023/04/21 04:18:54;;;;;;;14.63;6.40;;;;;;;8.58;100.00;101434.03;5095311;28;20455;-64
2023/04/21 04:21:21;;;;;;;14.30;7.50;;;;;;;8.62;100.00;101432.41;5094945;28;20448;-64
2023/04/21 04:23:50;;;;;;;14.20;7.10;;;;;;;8.70;100.00;101437.31;5095530;28;20506;-64
2023/04/21 04:26:17;;;;;;;14.17;7.20;;;;;;;8.72;99.71;101434.31;5095484;28;20436;-64
2023/04/21 04:28:44;;;;;;;19.33;8.90;;;;;;;8.76;99.50;101438.94;5095511;28;20935;-64
2023/04/21 04:31:13;;;;;;;12.87;6.60;;;;;;;8.79;99.55;101443.81;5095674;28;20440;-65
2023/04/21 04:33:40;;;;;;;16.60;7.80;;;;;;;8.83;99.46;101447.59;5096756;28;20468;-67
2023/04/21 04:36:07;;;;;;;31.10;8.67;;;;;;;8.87;98.87;101441.66;5095494;28;20483;-67
2023/04/21 04:38:36;;;;;;;12.70;6.50;;;;;;;8.94;98.39;101444.91;5095233;28;20468;-68
2023/04/21 04:41:03;;;;;;;13.20;7.23;;;;;;;8.97;98.07;101444.38;5095472;28;20480;-68
2023/04/21 04:43:32;;;;;;;13.53;6.70;;;;;;;8.99;98.22;101448.44;5094909;28;20480;-67
2023/04/21 04:45:59;;;;;;;16.07;7.63;;;;;;;9.03;97.99;101443.28;5095136;28;20956;-68
2023/04/21 04:48:27;;;;;;;16.67;8.33;;;;;;;9.08;97.47;101446.81;5095365;28;20466;-68
2023/04/21 04:50:53;;;;;;;14.93;8.23;;;;;;;9.13;97.22;101445.19;5095387;28;20455;-67
2023/04/21 04:53:20;;;;;;;19.50;8.37;;;;;;;9.15;97.04;101440.31;5094922;28;21016;-67
2023/04/21 04:55:46;;;;;;;13.60;6.67;;;;;;;9.19;96.97;101439.50;5095196;28;20494;-67
2023/04/21 04:58:13;;;;;;;15.13;6.93;;;;;;;9.22;96.88;101444.38;5094881;28;20969;-67
2023/04/21 05:00:40;;;;;;;17.03;7.00;;;;;;;9.23;96.45;101448.72;5095148;28;20529;-65
2023/04/21 05:03:06;;;;;;;14.07;7.67;;;;;;;9.29;96.06;101455.72;5094728;28;20974;-67
2023/04/21 05:05:34;;;;;;;14.87;6.90;;;;;;;9.34;95.85;101454.91;5094733;28;20473;-68
2023/04/21 05:08:01;;;;;;;16.70;8.27;;;;;;;9.40;95.37;101453.03;5095006;28;20451;-66
2023/04/21 05:10:28;;;;;;;14.07;6.90;;;;;;;9.46;94.10;101458.16;5094716;28;21018;-68
2023/04/21 05:12:54;;;;;;;18.63;7.07;;;;;;;9.53;93.98;101449.78;5094554;28;20499;-68
2023/04/21 05:15:21;;;;;;;16.70;7.17;;;;;;;9.60;93.37;101461.09;5094777;28;20594;-68
2023/04/21 05:17:48;;;;;;;16.40;8.33;;;;;;;9.62;92.16;101464.38;5094895;28;20514;-68
2023/04/21 05:20:15;;;;;;;15.80;8.00;;;;;;;9.69;91.46;101455.97;5094708;28;20446;-67
2023/04/21 05:22:43;;;;;;;14.83;7.73;;;;;;;9.74;92.15;101456.78;5094336;28;20548;-66
2023/04/21 05:25:13;;;;;;;21.30;8.80;;;;;;;9.84;91.42;101462.16;5094361;28;20966;-67
2023/04/21 05:27:40;;;;;;;14.70;7.67;;;;;;;9.92;90.28;101460.78;5094348;28;20841;-67
2023/04/21 05:30:08;;;;;;;15.57;7.83;;;;;;;10.04;89.64;101460.47;5094139;28;20447;-67
2023/04/21 05:32:35;;;;;;;15.47;8.70;;;;;;;10.10;89.38;101459.38;5093608;28;20827;-67
2023/04/21 05:35:02;;;;;;;14.37;6.70;;;;;;;10.17;89.47;101462.59;5094362;28;20798;-67
2023/04/21 05:37:28;;;;;;;15.13;7.20;;;;;;;10.25;88.91;101462.06;5094406;28;20532;-66
2023/04/21 05:39:56;;;;;;;18.23;6.70;;;;;;;10.33;88.04;101464.19;5094317;28;20440;-66
2023/04/21 05:42:23;;;;;;;12.80;7.00;;;;;;;10.41;88.18;101459.28;5093776;28;20456;-66
2023/04/21 05:44:49;;;;;;;15.90;7.30;;;;;;;10.44;87.94;101461.44;5094283;28;20460;-67
2023/04/21 05:47:16;;;;;;;19.67;9.50;;;;;;;10.44;87.25;101469.56;5093861;28;20445;-66
2023/04/21 05:49:48;;;;;;;13.13;6.90;;;;;;;10.47;86.75;101447.34;5093881;28;20443;-67
2023/04/21 05:52:15;;;;;;;15.90;7.93;;;;;;;10.59;86.48;101462.19;5094051;28;20527;-66
2023/04/21 05:54:42;;;;;;;14.60;6.73;;;;;;;10.68;85.81;101462.41;5094032;28;20448;-67
2023/04/21 05:57:10;;;;;;;21.57;8.10;;;;;;;10.73;85.48;101462.38;5093939;28;20480;-67
2023/04/21 05:59:36;;;;;;;18.10;8.07;;;;;;;10.86;84.63;101461.75;5093937;28;20623;-67
2023/04/21 06:02:03;;;;;;;14.80;7.80;;;;;;;10.88;85.07;101468.78;5093911;28;20441;-68
2023/04/21 06:04:30;;;;;;;15.70;7.30;;;;;;;10.94;84.57;101464.97;5093587;28;20444;-72
2023/04/21 06:06:56;;;;;;;15.50;8.07;;;;;;;11.04;84.70;101468.38;5093915;28;20464;-73
2023/04/21 06:09:23;;;;;;;19.67;7.37;;;;;;;11.10;83.97;101466.44;5093567;28;20445;-73
2023/04/21 06:11:50;;;;;;;14.10;7.30;;;;;;;11.20;83.70;101466.38;5093513;28;20940;-69
2023/04/21 06:14:18;;;;;;;13.67;7.07;;;;;;;11.25;82.93;101454.69;5093608;28;20463;-68
2023/04/21 06:16:44;;;;;;;12.90;6.53;;;;;;;11.32;82.55;101457.88;5093611;28;20480;-68
2023/04/21 06:19:11;;;;;;;16.33;6.70;;;;;;;11.31;83.84;101459.78;5093563;28;20447;-68
2023/04/21 06:21:37;;;;;;;17.40;6.97;;;;;;;11.33;81.80;101452.19;5093584;28;20447;-68
2023/04/21 06:24:04;;;;;;;12.73;7.10;;;;;;;11.38;81.77;101462.16;5093507;28;20467;-68
2023/04/21 06:26:31;;;;;;;14.13;6.10;;;;;;;11.45;81.16;101450.97;5093463;28;20444;-68
2023/04/21 06:28:58;;;;;;;14.80;6.40;;;;;;;11.49;80.58;101443.88;5093110;28;20521;-68
2023/04/21 06:31:25;;;;;;;17.10;7.47;;;;;;;11.57;80.44;101446.78;5093503;28;20433;-68
2023/04/21 06:33:52;;;;;;;14.63;7.53;;;;;;;11.68;79.97;101446.69;5093487;28;20464;-68
2023/04/21 06:36:20;;;;;;;12.57;6.27;;;;;;;11.73;79.76;101435.75;5093261;28;20478;-72
2023/04/21 06:38:47;;;;;;;14.67;6.50;;;;;;;11.81;80.12;101440.56;5093460;28;20863;-67
2023/04/21 06:41:13;;;;;;;21.83;7.50;;;;;;;11.88;79.72;101442.97;5093235;28;20428;-67
2023/04/21 06:43:40;;;;;;;17.37;7.20;;;;;;;12.00;79.08;101435.25;5092082;28;20476;-67
2023/04/21 06:46:07;;;;;;;13.10;7.27;;;;;;;12.06;78.08;101447.66;5093290;28;20449;-66
2023/04/21 06:48:35;;;;;;;11.83;6.50;;;;;;;12.15;79.36;101440.50;5092972;28;20472;-67
2023/04/21 06:51:02;;;;;;;14.17;5.83;;;;;;;12.24;77.75;101438.75;5093246;28;20498;-66
2023/04/21 06:53:28;;;;;;;15.40;7.77;;;;;;;12.35;76.26;101436.69;5093168;28;20922;-67
2023/04/21 06:55:55;;;;;;;13.63;6.80;;;;;;;12.45;76.00;101438.50;5093128;28;20576;-67
2023/04/21 06:58:22;;;;;;;17.40;6.70;;;;;;;12.54;74.87;101434.00;5092895;28;20443;-67
2023/04/21 07:00:49;;;;;;;14.33;6.97;;;;;;;12.59;74.88;101432.03;5093200;28;20480;-66
2023/04/21 07:03:15;;;;;;;16.23;6.70;;;;;;;12.68;74.80;101431.38;5093115;28;20464;-66
2023/04/21 07:05:43;;;;;;;16.13;6.80;;;;;;;12.75;75.20;101429.91;5092876;28;20464;-66
2023/04/21 07:08:10;;;;;;;15.40;7.30;;;;;;;12.93;74.57;101436.44;5092873;28;20452;-68
2023/04/21 07:10:37;;;;;;;13.43;7.30;;;;;;;13.03;73.00;101433.53;5093088;28;20472;-67
2023/04/21 07:13:03;;;;;;;19.00;6.63;;;;;;;13.12;72.46;101433.69;5092996;28;20506;-67
2023/04/21 07:15:30;;;;;;;14.33;6.67;;;;;;;13.16;72.43;101436.63;5092881;28;20482;-67
2023/04/21 07:17:57;;;;;;;14.80;6.30;;;;;;;13.19;72.09;101436.81;5092671;28;20437;-67
2023/04/21 07:20:24;;;;;;;19.50;6.10;;;;;;;13.25;73.06;101427.50;5092894;28;20449;-66
2023/04/21 07:22:52;;;;;;;14.73;6.63;;;;;;;13.34;72.88;101424.91;5092535;28;20498;-66
2023/04/21 07:25:19;;;;;;;14.90;7.00;;;;;;;13.41;71.96;101429.94;5092707;28;20476;-67
2023/04/21 07:27:45;;;;;;;14.73;6.13;;;;;;;13.50;71.91;101425.41;5092663;28;20466;-66
2023/04/21 07:30:12;;;;;;;14.40;6.90;;;;;;;13.55;71.21;101428.09;5092583;28;21027;-66
2023/04/21 07:32:39;;;;;;;23.80;7.20;;;;;;;13.66;70.11;101426.78;5092470;28;20547;-66
2023/04/21 07:35:06;;;;;;;13.03;6.27;;;;;;;13.77;69.93;101428.22;5092870;28;20555;-66
2023/04/21 07:37:33;;;;;;;12.60;5.40;;;;;;;13.86;68.81;101429.13;5092764;28;20535;-66
2023/04/21 07:40:01;;;;;;;11.70;6.23;;;;;;;13.93;67.78;101433.34;5092511;28;20535;-66
2023/04/21 07:42:27;;;;;;;14.63;6.60;;;;;;;13.96;67.27;101424.56;5092511;28;20511;-66
2023/04/21 07:44:56;;;;;;;15.13;5.30;;;;;;;14.07;67.51;101426.78;5092757;28;20420;-67
2023/04/21 07:47:22;;;;;;;13.53;5.90;;;;;;;14.16;67.20;101424.13;5092585;28;20494;-69
2023/04/21 07:49:49;;;;;;;15.30;5.90;;;;;;;14.22;67.13;101430.31;5092693;28;20454;-67
2023/04/21 07:52:16;;;;;;;12.50;5.03;;;;;;;14.28;66.37;101431.81;5092628;28;20889;-68
2023/04/21 07:54:42;;;;;;;10.80;5.80;;;;;;;14.34;66.06;101425.97;5094559;28;20432;-68
2023/04/21 07:57:11;;;;;;;11.77;5.60;;;;;;;14.49;65.88;101429.50;5096168;28;20891;-67
2023/04/21 07:59:37;;;;;;;13.23;5.63;;;;;;;14.59;66.17;101427.31;5096521;28;20444;-67
2023/04/21 08:02:04;;;;;;;11.00;5.63;;;;;;;14.65;65.58;101428.00;5096368;28;20478;-67
2023/04/21 08:04:31;;;;;;;10.57;6.20;;;;;;;14.73;65.30;101424.56;5096252;28;20467;-68
2023/04/21 08:06:57;;;;;;;16.27;6.33;;;;;;;14.77;65.52;101422.81;5096315;28;20439;-68
2023/04/21 08:09:24;;;;;;;12.97;6.27;;;;;;;14.82;65.40;101425.44;5096029;28;20439;-68
2023/04/21 08:11:50;;;;;;;13.73;6.40;;;;;;;14.91;65.24;101427.41;5096260;28;20433;-67
2023/04/21 08:14:19;;;;;;;11.70;6.40;;;;;;;15.02;65.12;101417.91;5096123;28;20550;-68
2023/04/21 08:16:45;;;;;;;13.40;6.30;;;;;;;15.09;64.00;101424.50;5095712;28;20480;-68
2023/04/21 08:19:12;;;;;;;15.10;7.07;;;;;;;15.24;64.08;101430.72;5095784;28;20978;-67
2023/04/21 08:21:39;;;;;;;12.90;5.83;;;;;;;15.30;63.64;101419.34;5095616;28;20436;-68
2023/04/21 08:24:06;;;;;;;14.57;6.63;;;;;;;15.37;62.64;101419.72;5095550;28;21014;-68
2023/04/21 08:26:33;;;;;;;13.53;5.47;;;;;;;15.45;62.36;101430.97;5095975;28;20443;-68
2023/04/21 08:29:00;;;;;;;15.27;5.37;;;;;;;15.52;61.63;101425.88;5095865;28;20429;-67
2023/04/21 08:31:28;;;;;;;14.73;5.20;;;;;;;15.58;62.66;101422.72;5095631;28;20453;-68
2023/04/21 08:33:55;;;;;;;11.80;5.17;;;;;;;15.66;62.37;101426.63;5095469;28;20495;-67
2023/04/21 08:36:21;;;;;;;13.50;5.03;;;;;;;15.75;61.21;101427.47;5095296;28;20488;-68
2023/04/21 08:38:48;;;;;;;10.47;5.13;;;;;;;15.78;61.75;101421.38;5095700;28;20445;-68
2023/04/21 08:41:15;;;;;;;12.47;6.23;;;;;;;15.83;62.36;101415.78;5095657;28;20440;-68
2023/04/21 08:43:41;;;;;;;16.10;5.70;;;;;;;15.87;60.49;101419.50;5095055;28;20472;-68
2023/04/21 08:46:09;;;;;;;10.37;5.57;;;;;;;15.97;61.81;101415.66;5095299;28;20455;-68
2023/04/21 08:48:38;;;;;;;11.30;5.73;;;;;;;16.08;60.15;101416.19;5095503;28;20445;-68
2023/04/21 08:51:08;;;;;;;12.00;5.40;;;;;;;16.18;59.52;101417.81;5095022;28;20446;-68
2023/04/21 08:53:35;;;;;;;9.03;4.13;;;;;;;16.24;59.90;101413.78;5095021;28;20842;-68
2023/04/21 08:56:02;;;;;;;15.27;6.00;;;;;;;16.30;58.86;101407.88;5095005;28;21023;-68
2023/04/21 08:58:28;;;;;;;11.90;4.60;;;;;;;16.37;56.74;101407.38;5095321;28;20448;-68
2023/04/21 09:00:56;;;;;;;9.80;4.63;;;;;;;16.47;58.83;101418.03;5095294;28;20547;-68
2023/04/21 09:03:24;;;;;;;11.60;5.17;;;;;;;16.54;57.98;101412.06;5095147;28;20563;-68
2023/04/21 09:05:59;;;;;;;12.10;5.60;;;;;;;16.64;56.70;101411.75;5094519;28;20441;-68
2023/04/21 09:08:28;;;;;;;9.50;4.20;;;;;;;16.69;56.45;101408.03;5095151;28;20424;-67
2023/04/21 09:10:55;;;;;;;10.40;4.40;;;;;;;16.81;55.26;101419.19;5095126;28;20451;-68
2023/04/21 09:13:29;;;;;;;10.70;4.93;;;;;;;16.90;56.26;101415.31;5094721;28;20523;-68
2023/04/21 09:15:56;;;;;;;9.70;5.37;;;;;;;16.97;54.60;101412.09;5094740;28;20903;-68
2023/04/21 09:18:24;;;;;;;10.27;4.87;;;;;;;17.10;56.36;101413.84;5094433;28;20994;-66
2023/04/21 09:20:52;;;;;;;11.83;4.90;;;;;;;17.14;54.46;101406.59;5094518;28;20483;-67
2023/04/21 09:23:21;;;;;;;9.37;4.80;;;;;;;17.20;55.00;101409.97;5094692;28;20559;-68
2023/04/21 09:25:47;;;;;;;10.37;4.77;;;;;;;17.30;54.27;101409.59;5095010;28;20432;-67
2023/04/21 09:28:15;;;;;;;11.53;5.07;;;;;;;17.36;55.10;101410.25;5094648;28;20437;-67
2023/04/21 09:30:42;;;;;;;12.30;4.53;;;;;;;17.52;55.90;101408.56;5094454;28;20432;-67
2023/04/21 09:33:15;;;;;;;10.10;5.10;;;;;;;17.60;54.94;101406.94;5095015;28;20874;-68
2023/04/21 09:35:42;;;;;;;21.43;5.23;;;;;;;17.54;53.12;101417.28;5094703;28;20429;-67
2023/04/21 09:38:12;;;;;;;9.63;4.67;;;;;;;17.50;52.09;101410.84;5094510;28;20483;-68
2023/04/21 09:40:40;;;;;;;10.47;5.50;;;;;;;17.46;51.42;101401.69;5094402;28;20614;-68
2023/04/21 09:43:07;;;;;;;9.80;4.87;;;;;;;17.59;52.00;101408.09;5094038;28;20476;-68
2023/04/21 09:45:34;;;;;;;13.13;5.07;;;;;;;17.72;54.07;101403.53;5094433;28;20439;-68
2023/04/21 09:48:01;;;;;;;11.17;4.87;;;;;;;17.82;52.97;101393.00;5094332;28;20501;-68
2023/04/21 09:50:29;;;;;;;9.50;4.57;;;;;;;18.00;52.99;101395.66;5094260;28;20448;-68
2023/04/21 09:52:57;;;;;;;10.50;5.27;;;;;;;18.05;52.72;101395.47;5093909;28;20452;-68
2023/04/21 09:55:26;;;;;;;10.47;4.60;;;;;;;18.22;51.90;101400.03;5093945;28;20436;-68
2023/04/21 09:57:57;;;;;;;11.93;5.33;;;;;;;18.24;51.01;101395.84;5094059;28;20519;-67
2023/04/21 10:00:27;;;;;;;15.87;5.47;;;;;;;18.32;51.59;101392.22;5093881;28;20420;-68
2023/04/21 10:02:55;;;;;;;9.27;4.53;;;;;;;18.34;51.78;101394.66;5094034;28;20464;-68
2023/04/21 10:05:22;;;;;;;9.80;4.10;;;;;;;18.40;49.52;101396.03;5094009;28;20523;-68
2023/04/21 10:07:50;;;;;;;10.37;4.73;;;;;;;18.41;51.00;101389.41;5093635;28;20946;-68
2023/04/21 10:10:21;;;;;;;9.50;4.53;;;;;;;18.57;49.99;101386.88;5093803;28;20555;-68
2023/04/21 10:12:47;;;;;;;10.20;4.47;;;;;;;18.78;49.82;101397.88;5093810;28;20496;-68
2023/04/21 10:15:32;;;;;;;10.23;4.70;;;;;;;18.79;49.30;101388.50;5093841;28;20472;-68
2023/04/21 10:18:18;;;;;;;10.70;4.50;;;;;;;18.84;51.12;101391.81;5093303;28;20461;-68
2023/04/21 10:20:52;;;;;;;12.20;5.10;;;;;;;18.95;49.33;101380.41;5093785;28;20477;-68
2023/04/21 10:23:30;;;;;;;10.63;4.60;;;;;;;19.08;50.72;101376.56;5093917;28;20556;-68
2023/04/21 10:26:02;;;;;;;9.50;4.67;;;;;;;19.16;49.32;101381.16;5093668;28;20426;-68
2023/04/21 10:28:43;;;;;;;8.33;3.70;;;;;;;19.28;49.92;101378.47;5093617;28;20421;-68
2023/04/21 10:31:31;;;;;;;10.93;4.73;;;;;;;19.35;48.02;101372.41;5093212;28;20792;-68
2023/04/21 10:34:17;;;;;;;9.03;4.20;;;;;;;19.38;49.22;101366.22;5093604;28;20461;-68
2023/04/21 10:37:14;;;;;;;11.10;4.53;;;;;;;19.44;45.50;101381.34;5093567;28;20492;-68
2023/04/21 10:39:47;;;;;;;10.90;4.60;;;;;;;19.62;48.36;101368.22;5091134;28;20464;-68
2023/04/21 10:42:25;;;;;;;17.60;5.03;;;;;;;19.79;47.24;101364.44;5093381;28;20484;-68
2023/04/21 10:44:54;;;;;;;10.70;4.27;;;;;;;19.87;44.67;101361.56;5093105;28;20921;-68
2023/04/21 10:47:30;;;;;;;9.23;4.27;;;;;;;19.91;44.99;101361.69;5093315;28;20468;-68
2023/04/21 10:49:57;;;;;;;7.87;3.40;;;;;;;20.01;43.70;101360.41;5093333;28;20440;-68
2023/04/21 10:52:32;;;;;;;7.27;3.40;;;;;;;20.06;42.10;101354.69;5093149;28;20472;-71
2023/04/21 10:55:07;;;;;;;8.57;4.03;;;;;;;20.10;43.73;101358.34;5092985;28;20420;-68
2023/04/21 10:57:35;;;;;;;9.03;4.67;;;;;;;20.30;44.55;101340.84;5093224;28;20475;-68
2023/04/21 11:00:04;;;;;;;8.70;4.13;;;;;;;20.48;45.00;101338.66;5093243;28;20440;-68
2023/04/21 11:02:33;;;;;;;8.57;3.53;;;;;;;20.65;44.66;101330.09;5092764;28;20982;-68
2023/04/21 11:05:01;;;;;;;9.57;4.10;;;;;;;20.82;44.96;101326.22;5093166;28;20428;-68
2023/04/21 11:07:27;;;;;;;8.60;3.90;;;;;;;21.01;44.00;101330.25;5093101;28;20440;-69
2023/04/21 11:09:58;;;;;;;7.23;3.73;;;;;;;21.24;43.40;101331.25;5092928;28;20448;-68
2023/04/21 11:12:28;;;;;;;8.30;4.07;;;;;;;21.22;42.13;101327.25;5093866;28;20437;-68
2023/04/21 11:14:55;;;;;;;8.87;4.20;;;;;;;21.53;42.71;101332.78;5092796;28;20943;-69
2023/04/21 11:17:22;;;;;;;9.30;3.67;;;;;;;22.19;40.23;101330.34;5093066;28;20519;-69
2023/04/21 11:19:52;;;;;;;11.23;5.00;;;;;;;22.92;39.22;101324.72;5092729;28;20809;-69
2023/04/21 11:22:20;;;;;;;10.53;3.70;;;;;;;23.77;38.73;101332.84;5092645;28;20880;-68